sensor_id;sensor_type;location;lat;lon;timestamp;temperature;humidity
78896;HTU21D;68284;59.124;37.910;2023-08-07T00:01:15;24.45;74.17
78896;HTU21D;68284;59.124;37.910;2023-08-07T00:03:42;24.39;74.31
78896;HTU21D;68284;59.124;37.910;2023-08-07T00:06:08;24.32;74.37
78896;HTU21D;68284;59.124;37.910;2023-08-07T00:08:35;24.28;74.50
78896;HTU21D;68284;59.124;37.910;2023-08-07T00:11:05;24.20;74.61
78896;HTU21D;68284;59.124;37.910;2023-08-07T00:13:33;24.16;74.63
78896;HTU21D;68284;59.124;37.910;2023-08-07T00:15:59;24.13;74.75
78896;HTU21D;68284;59.124;37.910;2023-08-07T00:18:25;24.06;74.92
78896;HTU21D;68284;59.124;37.910;2023-08-07T00:20:52;24.02;75.04
78896;HTU21D;68284;59.124;37.910;2023-08-07T00:23:18;23.99;75.16
78896;HTU21D;68284;59.124;37.910;2023-08-07T00:25:45;23.97;75.19
78896;HTU21D;68284;59.124;37.910;2023-08-07T00:28:11;23.94;75.22
78896;HTU21D;68284;59.124;37.910;2023-08-07T00:30:38;23.88;75.27
78896;HTU21D;68284;59.124;37.910;2023-08-07T00:33:04;23.87;75.35
78896;HTU21D;68284;59.124;37.910;2023-08-07T00:35:31;23.83;75.38
78896;HTU21D;68284;59.124;37.910;2023-08-07T00:37:58;23.84;75.49
78896;HTU21D;68284;59.124;37.910;2023-08-07T00:40:25;23.83;75.56
78896;HTU21D;68284;59.124;37.910;2023-08-07T00:42:52;23.79;75.70
78896;HTU21D;68284;59.124;37.910;2023-08-07T00:45:18;23.75;75.83
78896;HTU21D;68284;59.124;37.910;2023-08-07T00:47:45;23.72;75.99
78896;HTU21D;68284;59.124;37.910;2023-08-07T00:50:11;23.69;76.13
78896;HTU21D;68284;59.124;37.910;2023-08-07T00:52:38;23.68;76.26
78896;HTU21D;68284;59.124;37.910;2023-08-07T00:55:04;23.65;76.35
78896;HTU21D;68284;59.124;37.910;2023-08-07T00:57:32;23.62;76.44
78896;HTU21D;68284;59.124;37.910;2023-08-07T00:59:59;23.61;76.53
78896;HTU21D;68284;59.124;37.910;2023-08-07T01:02:26;23.59;76.61
78896;HTU21D;68284;59.124;37.910;2023-08-07T01:04:52;23.58;76.66
78896;HTU21D;68284;59.124;37.910;2023-08-07T01:07:19;23.56;76.79
78896;HTU21D;68284;59.124;37.910;2023-08-07T01:09:45;23.55;76.91
78896;HTU21D;68284;59.124;37.910;2023-08-07T01:12:18;23.50;77.08
78896;HTU21D;68284;59.124;37.910;2023-08-07T01:14:54;23.47;77.23
78896;HTU21D;68284;59.124;37.910;2023-08-07T01:17:23;23.44;77.34
78896;HTU21D;68284;59.124;37.910;2023-08-07T01:19:52;23.40;77.50
78896;HTU21D;68284;59.124;37.910;2023-08-07T01:22:19;23.38;77.53
78896;HTU21D;68284;59.124;37.910;2023-08-07T01:24:49;23.36;77.66
78896;HTU21D;68284;59.124;37.910;2023-08-07T01:30:15;23.29;78.01
78896;HTU21D;68284;59.124;37.910;2023-08-07T01:35:35;23.25;77.90
78896;HTU21D;68284;59.124;37.910;2023-08-07T01:38:03;23.26;77.85
78896;HTU21D;68284;59.124;37.910;2023-08-07T01:40:29;23.27;77.79
78896;HTU21D;68284;59.124;37.910;2023-08-07T01:42:56;23.29;77.68
78896;HTU21D;68284;59.124;37.910;2023-08-07T01:45:24;23.32;77.57
78896;HTU21D;68284;59.124;37.910;2023-08-07T01:47:51;23.36;77.49
78896;HTU21D;68284;59.124;37.910;2023-08-07T01:50:22;23.38;77.52
78896;HTU21D;68284;59.124;37.910;2023-08-07T01:52:48;23.38;77.55
78896;HTU21D;68284;59.124;37.910;2023-08-07T01:55:16;23.36;77.62
78896;HTU21D;68284;59.124;37.910;2023-08-07T01:57:51;23.37;77.50
78896;HTU21D;68284;59.124;37.910;2023-08-07T02:00:18;23.41;77.40
78896;HTU21D;68284;59.124;37.910;2023-08-07T02:02:44;23.43;77.31
78896;HTU21D;68284;59.124;37.910;2023-08-07T02:05:14;23.44;77.23
78896;HTU21D;68284;59.124;37.910;2023-08-07T02:07:41;23.46;77.11
78896;HTU21D;68284;59.124;37.910;2023-08-07T02:10:08;23.49;76.95
78896;HTU21D;68284;59.124;37.910;2023-08-07T02:12:36;23.53;76.77
78896;HTU21D;68284;59.124;37.910;2023-08-07T02:15:02;23.57;76.66
78896;HTU21D;68284;59.124;37.910;2023-08-07T02:17:30;23.58;76.61
78896;HTU21D;68284;59.124;37.910;2023-08-07T02:19:57;23.58;76.54
78896;HTU21D;68284;59.124;37.910;2023-08-07T02:22:24;23.60;76.48
78896;HTU21D;68284;59.124;37.910;2023-08-07T02:24:51;23.65;76.31
78896;HTU21D;68284;59.124;37.910;2023-08-07T02:27:18;23.73;76.10
78896;HTU21D;68284;59.124;37.910;2023-08-07T02:29:44;23.79;75.86
78896;HTU21D;68284;59.124;37.910;2023-08-07T02:32:10;23.86;75.65
78896;HTU21D;68284;59.124;37.910;2023-08-07T02:34:37;23.90;75.52
78896;HTU21D;68284;59.124;37.910;2023-08-07T02:37:03;23.95;75.47
78896;HTU21D;68284;59.124;37.910;2023-08-07T02:39:30;23.98;75.34
78896;HTU21D;68284;59.124;37.910;2023-08-07T02:41:56;24.00;75.13
78896;HTU21D;68284;59.124;37.910;2023-08-07T02:44:22;24.08;75.01
78896;HTU21D;68284;59.124;37.910;2023-08-07T02:46:49;24.17;74.60
78896;HTU21D;68284;59.124;37.910;2023-08-07T02:49:15;24.27;74.29
78896;HTU21D;68284;59.124;37.910;2023-08-07T02:51:41;24.31;74.06
78896;HTU21D;68284;59.124;37.910;2023-08-07T02:54:07;24.35;73.92
78896;HTU21D;68284;59.124;37.910;2023-08-07T02:56:34;24.39;73.81
78896;HTU21D;68284;59.124;37.910;2023-08-07T02:59:00;24.40;73.63
78896;HTU21D;68284;59.124;37.910;2023-08-07T03:01:28;24.45;73.49
78896;HTU21D;68284;59.124;37.910;2023-08-07T03:03:54;24.51;73.23
78896;HTU21D;68284;59.124;37.910;2023-08-07T03:06:20;24.59;72.92
78896;HTU21D;68284;59.124;37.910;2023-08-07T03:08:46;24.68;72.58
78896;HTU21D;68284;59.124;37.910;2023-08-07T03:11:13;24.75;72.19
78896;HTU21D;68284;59.124;37.910;2023-08-07T03:13:39;24.82;71.93
78896;HTU21D;68284;59.124;37.910;2023-08-07T03:16:06;24.87;71.77
78896;HTU21D;68284;59.124;37.910;2023-08-07T03:18:33;24.94;71.45
78896;HTU21D;68284;59.124;37.910;2023-08-07T03:21:00;25.01;71.18
78896;HTU21D;68284;59.124;37.910;2023-08-07T03:23:27;25.07;70.87
78896;HTU21D;68284;59.124;37.910;2023-08-07T03:26:07;25.15;70.60
78896;HTU21D;68284;59.124;37.910;2023-08-07T03:28:35;25.22;70.32
78896;HTU21D;68284;59.124;37.910;2023-08-07T03:31:02;25.30;69.98
78896;HTU21D;68284;59.124;37.910;2023-08-07T03:33:31;25.34;69.78
78896;HTU21D;68284;59.124;37.910;2023-08-07T03:35:58;25.44;69.46
78896;HTU21D;68284;59.124;37.910;2023-08-07T03:38:25;25.53;69.11
78896;HTU21D;68284;59.124;37.910;2023-08-07T03:40:54;25.61;68.77
78896;HTU21D;68284;59.124;37.910;2023-08-07T03:43:21;25.68;68.51
78896;HTU21D;68284;59.124;37.910;2023-08-07T03:45:47;25.76;68.19
78896;HTU21D;68284;59.124;37.910;2023-08-07T03:48:19;25.88;67.88
78896;HTU21D;68284;59.124;37.910;2023-08-07T03:50:46;25.97;67.51
78896;HTU21D;68284;59.124;37.910;2023-08-07T03:53:13;26.03;67.29
78896;HTU21D;68284;59.124;37.910;2023-08-07T03:55:49;26.15;66.81
78896;HTU21D;68284;59.124;37.910;2023-08-07T03:58:16;26.25;66.55
78896;HTU21D;68284;59.124;37.910;2023-08-07T04:00:42;26.31;66.36
78896;HTU21D;68284;59.124;37.910;2023-08-07T04:03:10;26.40;66.20
78896;HTU21D;68284;59.124;37.910;2023-08-07T04:05:37;26.51;65.79
78896;HTU21D;68284;59.124;37.910;2023-08-07T04:08:03;26.64;65.48
78896;HTU21D;68284;59.124;37.910;2023-08-07T04:10:30;26.73;65.08
78896;HTU21D;68284;59.124;37.910;2023-08-07T04:12:57;26.83;64.73
78896;HTU21D;68284;59.124;37.910;2023-08-07T04:15:24;26.92;64.49
78896;HTU21D;68284;59.124;37.910;2023-08-07T04:17:50;27.00;64.21
78896;HTU21D;68284;59.124;37.910;2023-08-07T04:20:16;27.12;63.89
78896;HTU21D;68284;59.124;37.910;2023-08-07T04:22:43;27.19;63.47
78896;HTU21D;68284;59.124;37.910;2023-08-07T04:25:14;27.21;63.37
78896;HTU21D;68284;59.124;37.910;2023-08-07T04:27:43;27.26;63.28
78896;HTU21D;68284;59.124;37.910;2023-08-07T04:30:10;27.37;63.05
78896;HTU21D;68284;59.124;37.910;2023-08-07T04:32:36;27.47;62.80
78896;HTU21D;68284;59.124;37.910;2023-08-07T04:35:03;27.59;62.50
78896;HTU21D;68284;59.124;37.910;2023-08-07T04:37:31;27.67;62.24
78896;HTU21D;68284;59.124;37.910;2023-08-07T04:39:58;27.72;62.12
78896;HTU21D;68284;59.124;37.910;2023-08-07T04:42:26;27.75;61.99
78896;HTU21D;68284;59.124;37.910;2023-08-07T04:44:53;27.75;61.99
78896;HTU21D;68284;59.124;37.910;2023-08-07T04:47:19;27.78;62.01
78896;HTU21D;68284;59.124;37.910;2023-08-07T04:49:47;27.81;62.06
78896;HTU21D;68284;59.124;37.910;2023-08-07T04:52:13;27.87;61.99
78896;HTU21D;68284;59.124;37.910;2023-08-07T04:54:39;27.93;61.90
78896;HTU21D;68284;59.124;37.910;2023-08-07T04:57:06;27.97;61.78
78896;HTU21D;68284;59.124;37.910;2023-08-07T04:59:32;28.01;61.76
78896;HTU21D;68284;59.124;37.910;2023-08-07T05:01:58;28.04;61.87
78896;HTU21D;68284;59.124;37.910;2023-08-07T05:04:25;28.10;61.67
78896;HTU21D;68284;59.124;37.910;2023-08-07T05:06:51;28.15;61.56
78896;HTU21D;68284;59.124;37.910;2023-08-07T05:09:17;28.21;61.41
78896;HTU21D;68284;59.124;37.910;2023-08-07T05:11:44;28.31;61.11
78896;HTU21D;68284;59.124;37.910;2023-08-07T05:14:11;28.38;60.86
78896;HTU21D;68284;59.124;37.910;2023-08-07T05:16:38;28.44;60.93
78896;HTU21D;68284;59.124;37.910;2023-08-07T05:19:05;28.55;60.69
78896;HTU21D;68284;59.124;37.910;2023-08-07T05:21:31;28.65;60.27
78896;HTU21D;68284;59.124;37.910;2023-08-07T05:23:58;28.70;60.27
78896;HTU21D;68284;59.124;37.910;2023-08-07T05:26:24;28.76;60.02
78896;HTU21D;68284;59.124;37.910;2023-08-07T05:28:51;28.83;59.67
78896;HTU21D;68284;59.124;37.910;2023-08-07T05:31:17;28.89;59.38
78896;HTU21D;68284;59.124;37.910;2023-08-07T05:33:44;28.91;59.04
78896;HTU21D;68284;59.124;37.910;2023-08-07T05:36:11;28.91;58.79
78896;HTU21D;68284;59.124;37.910;2023-08-07T05:38:37;28.90;58.74
78896;HTU21D;68284;59.124;37.910;2023-08-07T05:41:03;28.94;58.48
78896;HTU21D;68284;59.124;37.910;2023-08-07T05:43:30;28.98;58.31
78896;HTU21D;68284;59.124;37.910;2023-08-07T05:45:58;29.03;58.20
78896;HTU21D;68284;59.124;37.910;2023-08-07T05:48:26;29.06;58.06
78896;HTU21D;68284;59.124;37.910;2023-08-07T05:50:53;29.05;57.93
78896;HTU21D;68284;59.124;37.910;2023-08-07T05:53:45;29.08;57.92
78896;HTU21D;68284;59.124;37.910;2023-08-07T05:56:12;29.12;58.13
78896;HTU21D;68284;59.124;37.910;2023-08-07T05:58:39;29.18;57.82
78896;HTU21D;68284;59.124;37.910;2023-08-07T06:01:05;29.21;57.64
78896;HTU21D;68284;59.124;37.910;2023-08-07T06:03:31;29.22;57.60
78896;HTU21D;68284;59.124;37.910;2023-08-07T06:05:59;29.21;57.57
78896;HTU21D;68284;59.124;37.910;2023-08-07T06:08:25;29.21;57.55
78896;HTU21D;68284;59.124;37.910;2023-08-07T06:11:23;29.21;57.42
78896;HTU21D;68284;59.124;37.910;2023-08-07T06:13:49;29.26;57.35
78896;HTU21D;68284;59.124;37.910;2023-08-07T06:16:19;29.32;57.00
78896;HTU21D;68284;59.124;37.910;2023-08-07T06:18:45;29.39;56.64
78896;HTU21D;68284;59.124;37.910;2023-08-07T06:21:11;29.43;56.38
78896;HTU21D;68284;59.124;37.910;2023-08-07T06:23:39;29.49;56.09
78896;HTU21D;68284;59.124;37.910;2023-08-07T06:26:08;29.54;55.94
78896;HTU21D;68284;59.124;37.910;2023-08-07T06:28:43;29.61;55.54
78896;HTU21D;68284;59.124;37.910;2023-08-07T06:31:12;29.66;55.25
78896;HTU21D;68284;59.124;37.910;2023-08-07T06:33:38;29.75;54.83
78896;HTU21D;68284;59.124;37.910;2023-08-07T06:36:06;29.81;54.42
78896;HTU21D;68284;59.124;37.910;2023-08-07T06:38:33;29.88;54.38
78896;HTU21D;68284;59.124;37.910;2023-08-07T06:40:59;29.93;54.15
78896;HTU21D;68284;59.124;37.910;2023-08-07T06:43:25;30.02;53.73
78896;HTU21D;68284;59.124;37.910;2023-08-07T06:45:56;30.06;53.65
78896;HTU21D;68284;59.124;37.910;2023-08-07T06:48:22;30.12;53.33
78896;HTU21D;68284;59.124;37.910;2023-08-07T06:50:54;30.20;52.84
78896;HTU21D;68284;59.124;37.910;2023-08-07T06:53:22;30.26;52.39
78896;HTU21D;68284;59.124;37.910;2023-08-07T06:55:49;30.35;52.28
78896;HTU21D;68284;59.124;37.910;2023-08-07T06:58:19;30.46;51.88
78896;HTU21D;68284;59.124;37.910;2023-08-07T07:00:46;30.51;51.90
78896;HTU21D;68284;59.124;37.910;2023-08-07T07:03:14;30.56;51.66
78896;HTU21D;68284;59.124;37.910;2023-08-07T07:05:40;30.66;51.28
78896;HTU21D;68284;59.124;37.910;2023-08-07T07:08:08;30.69;50.81
78896;HTU21D;68284;59.124;37.910;2023-08-07T07:10:35;30.71;50.50
78896;HTU21D;68284;59.124;37.910;2023-08-07T07:13:01;30.74;50.24
78896;HTU21D;68284;59.124;37.910;2023-08-07T07:15:27;30.74;49.90
78896;HTU21D;68284;59.124;37.910;2023-08-07T07:17:53;30.76;49.83
78896;HTU21D;68284;59.124;37.910;2023-08-07T07:20:20;30.80;49.89
78896;HTU21D;68284;59.124;37.910;2023-08-07T07:22:46;30.86;49.38
78896;HTU21D;68284;59.124;37.910;2023-08-07T07:25:13;30.92;49.21
78896;HTU21D;68284;59.124;37.910;2023-08-07T07:27:39;30.95;49.10
78896;HTU21D;68284;59.124;37.910;2023-08-07T07:30:06;30.98;49.03
78896;HTU21D;68284;59.124;37.910;2023-08-07T07:32:33;31.00;49.27
78896;HTU21D;68284;59.124;37.910;2023-08-07T07:35:00;31.05;48.73
78896;HTU21D;68284;59.124;37.910;2023-08-07T07:37:26;31.13;48.44
78896;HTU21D;68284;59.124;37.910;2023-08-07T07:39:52;31.15;47.69
78896;HTU21D;68284;59.124;37.910;2023-08-07T07:42:19;31.19;47.38
78896;HTU21D;68284;59.124;37.910;2023-08-07T07:44:45;31.20;46.90
78896;HTU21D;68284;59.124;37.910;2023-08-07T07:47:11;31.20;46.84
78896;HTU21D;68284;59.124;37.910;2023-08-07T07:49:39;31.21;47.43
78896;HTU21D;68284;59.124;37.910;2023-08-07T07:52:05;31.25;47.12
78896;HTU21D;68284;59.124;37.910;2023-08-07T07:54:32;31.29;46.79
78896;HTU21D;68284;59.124;37.910;2023-08-07T07:56:58;31.31;47.11
78896;HTU21D;68284;59.124;37.910;2023-08-07T07:59:24;31.37;46.58
78896;HTU21D;68284;59.124;37.910;2023-08-07T08:01:51;31.43;46.54
78896;HTU21D;68284;59.124;37.910;2023-08-07T08:04:18;31.46;46.27
78896;HTU21D;68284;59.124;37.910;2023-08-07T08:06:45;31.53;46.31
78896;HTU21D;68284;59.124;37.910;2023-08-07T08:09:15;31.58;46.08
78896;HTU21D;68284;59.124;37.910;2023-08-07T08:11:41;31.63;45.74
78896;HTU21D;68284;59.124;37.910;2023-08-07T08:14:08;31.67;45.38
78896;HTU21D;68284;59.124;37.910;2023-08-07T08:16:36;31.68;45.54
78896;HTU21D;68284;59.124;37.910;2023-08-07T08:19:02;31.70;45.32
78896;HTU21D;68284;59.124;37.910;2023-08-07T08:21:30;31.73;44.79
78896;HTU21D;68284;59.124;37.910;2023-08-07T08:23:58;31.75;44.76
78896;HTU21D;68284;59.124;37.910;2023-08-07T08:26:25;31.79;44.98
78896;HTU21D;68284;59.124;37.910;2023-08-07T08:28:51;31.87;44.68
78896;HTU21D;68284;59.124;37.910;2023-08-07T08:31:17;31.88;44.68
78896;HTU21D;68284;59.124;37.910;2023-08-07T08:33:44;31.90;44.44
78896;HTU21D;68284;59.124;37.910;2023-08-07T08:36:12;31.89;44.26
78896;HTU21D;68284;59.124;37.910;2023-08-07T08:38:38;31.82;44.16
78896;HTU21D;68284;59.124;37.910;2023-08-07T08:41:07;31.75;44.38
78896;HTU21D;68284;59.124;37.910;2023-08-07T08:43:35;31.74;44.23
78896;HTU21D;68284;59.124;37.910;2023-08-07T08:46:05;31.81;44.14
78896;HTU21D;68284;59.124;37.910;2023-08-07T08:48:35;31.78;44.22
78896;HTU21D;68284;59.124;37.910;2023-08-07T08:51:04;31.74;44.38
78896;HTU21D;68284;59.124;37.910;2023-08-07T08:53:32;31.78;44.78
78896;HTU21D;68284;59.124;37.910;2023-08-07T08:56:00;31.82;44.28
78896;HTU21D;68284;59.124;37.910;2023-08-07T08:58:28;31.81;44.16
78896;HTU21D;68284;59.124;37.910;2023-08-07T09:00:55;31.82;44.04
78896;HTU21D;68284;59.124;37.910;2023-08-07T09:03:21;31.75;44.13
78896;HTU21D;68284;59.124;37.910;2023-08-07T09:05:57;31.69;44.44
78896;HTU21D;68284;59.124;37.910;2023-08-07T09:08:26;31.67;44.51
78896;HTU21D;68284;59.124;37.910;2023-08-07T09:10:55;31.75;44.48
78896;HTU21D;68284;59.124;37.910;2023-08-07T09:13:23;31.83;44.51
78896;HTU21D;68284;59.124;37.910;2023-08-07T09:15:51;31.92;44.23
78896;HTU21D;68284;59.124;37.910;2023-08-07T09:18:21;31.99;43.84
78896;HTU21D;68284;59.124;37.910;2023-08-07T09:20:48;32.05;43.91
78896;HTU21D;68284;59.124;37.910;2023-08-07T09:23:16;32.15;43.71
78896;HTU21D;68284;59.124;37.910;2023-08-07T09:25:45;32.22;43.18
78896;HTU21D;68284;59.124;37.910;2023-08-07T09:28:13;32.25;42.87
78896;HTU21D;68284;59.124;37.910;2023-08-07T09:30:41;32.24;42.95
78896;HTU21D;68284;59.124;37.910;2023-08-07T09:33:10;32.27;43.00
78896;HTU21D;68284;59.124;37.910;2023-08-07T09:35:36;32.30;43.18
78896;HTU21D;68284;59.124;37.910;2023-08-07T09:38:03;32.31;42.58
78896;HTU21D;68284;59.124;37.910;2023-08-07T09:40:30;32.32;42.32
78896;HTU21D;68284;59.124;37.910;2023-08-07T09:42:56;32.37;42.39
78896;HTU21D;68284;59.124;37.910;2023-08-07T09:45:24;32.43;41.94
78896;HTU21D;68284;59.124;37.910;2023-08-07T09:48:23;32.49;41.92
78896;HTU21D;68284;59.124;37.910;2023-08-07T09:50:54;32.54;42.45
78896;HTU21D;68284;59.124;37.910;2023-08-07T09:53:25;32.61;41.81
78896;HTU21D;68284;59.124;37.910;2023-08-07T09:55:53;32.61;41.75
78896;HTU21D;68284;59.124;37.910;2023-08-07T09:58:20;32.64;41.33
78896;HTU21D;68284;59.124;37.910;2023-08-07T10:00:47;32.64;41.09
78896;HTU21D;68284;59.124;37.910;2023-08-07T10:03:15;32.60;41.34
78896;HTU21D;68284;59.124;37.910;2023-08-07T10:05:43;32.63;41.49
78896;HTU21D;68284;59.124;37.910;2023-08-07T10:08:14;32.62;41.30
78896;HTU21D;68284;59.124;37.910;2023-08-07T10:10:41;32.55;41.32
78896;HTU21D;68284;59.124;37.910;2023-08-07T10:13:10;32.47;41.58
78896;HTU21D;68284;59.124;37.910;2023-08-07T10:15:39;32.41;41.47
78896;HTU21D;68284;59.124;37.910;2023-08-07T10:18:10;32.35;41.70
78896;HTU21D;68284;59.124;37.910;2023-08-07T10:20:37;32.33;41.72
78896;HTU21D;68284;59.124;37.910;2023-08-07T10:23:09;32.37;42.23
78896;HTU21D;68284;59.124;37.910;2023-08-07T10:25:39;32.45;41.99
78896;HTU21D;68284;59.124;37.910;2023-08-07T10:28:09;32.56;41.76
78896;HTU21D;68284;59.124;37.910;2023-08-07T10:30:37;32.60;41.65
78896;HTU21D;68284;59.124;37.910;2023-08-07T10:33:07;32.69;41.35
78896;HTU21D;68284;59.124;37.910;2023-08-07T10:35:35;32.76;41.26
78896;HTU21D;68284;59.124;37.910;2023-08-07T10:38:08;32.85;41.18
78896;HTU21D;68284;59.124;37.910;2023-08-07T10:43:37;33.18;41.03
78896;HTU21D;68284;59.124;37.910;2023-08-07T10:46:12;33.30;40.78
78896;HTU21D;68284;59.124;37.910;2023-08-07T10:48:45;33.45;40.79
78896;HTU21D;68284;59.124;37.910;2023-08-07T10:51:19;33.63;40.40
78896;HTU21D;68284;59.124;37.910;2023-08-07T10:53:49;33.79;40.29
78896;HTU21D;68284;59.124;37.910;2023-08-07T10:56:18;33.94;40.20
78896;HTU21D;68284;59.124;37.910;2023-08-07T10:58:49;34.20;39.77
78896;HTU21D;68284;59.124;37.910;2023-08-07T11:04:11;34.89;38.40
78896;HTU21D;68284;59.124;37.910;2023-08-07T11:06:42;35.11;37.79
78896;HTU21D;68284;59.124;37.910;2023-08-07T11:09:09;35.33;37.41
78896;HTU21D;68284;59.124;37.910;2023-08-07T11:14:07;35.71;36.91
78896;HTU21D;68284;59.124;37.910;2023-08-07T11:16:34;35.89;36.69
78896;HTU21D;68284;59.124;37.910;2023-08-07T11:19:01;36.14;35.99
78896;HTU21D;68284;59.124;37.910;2023-08-07T11:21:33;36.26;35.66
78896;HTU21D;68284;59.124;37.910;2023-08-07T11:24:00;36.29;35.21
78896;HTU21D;68284;59.124;37.910;2023-08-07T11:26:27;36.31;35.22
78896;HTU21D;68284;59.124;37.910;2023-08-07T11:28:54;36.40;34.93
78896;HTU21D;68284;59.124;37.910;2023-08-07T11:31:22;36.49;34.86
78896;HTU21D;68284;59.124;37.910;2023-08-07T11:33:51;36.74;34.56
78896;HTU21D;68284;59.124;37.910;2023-08-07T11:36:18;37.04;34.28
78896;HTU21D;68284;59.124;37.910;2023-08-07T11:38:44;37.27;33.85
78896;HTU21D;68284;59.124;37.910;2023-08-07T11:41:12;37.36;33.51
78896;HTU21D;68284;59.124;37.910;2023-08-07T11:43:40;37.49;33.26
78896;HTU21D;68284;59.124;37.910;2023-08-07T11:46:08;37.59;33.18
78896;HTU21D;68284;59.124;37.910;2023-08-07T11:48:38;37.74;32.92
78896;HTU21D;68284;59.124;37.910;2023-08-07T11:51:05;37.96;32.64
78896;HTU21D;68284;59.124;37.910;2023-08-07T11:53:36;38.17;32.34
78896;HTU21D;68284;59.124;37.910;2023-08-07T11:56:05;38.35;32.00
78896;HTU21D;68284;59.124;37.910;2023-08-07T11:58:36;38.45;31.97
78896;HTU21D;68284;59.124;37.910;2023-08-07T12:01:20;38.63;31.48
78896;HTU21D;68284;59.124;37.910;2023-08-07T12:03:54;38.81;31.45
78896;HTU21D;68284;59.124;37.910;2023-08-07T12:06:21;39.05;31.03
78896;HTU21D;68284;59.124;37.910;2023-08-07T12:08:54;39.21;30.72
78896;HTU21D;68284;59.124;37.910;2023-08-07T12:11:21;39.41;30.42
78896;HTU21D;68284;59.124;37.910;2023-08-07T12:13:48;39.55;30.30
78896;HTU21D;68284;59.124;37.910;2023-08-07T12:16:15;39.87;30.10
78896;HTU21D;68284;59.124;37.910;2023-08-07T12:18:52;40.33;29.57
78896;HTU21D;68284;59.124;37.910;2023-08-07T12:21:22;40.71;29.06
78896;HTU21D;68284;59.124;37.910;2023-08-07T12:23:57;41.16;28.41
78896;HTU21D;68284;59.124;37.910;2023-08-07T12:26:24;41.54;27.44
78896;HTU21D;68284;59.124;37.910;2023-08-07T12:28:52;41.71;27.07
78896;HTU21D;68284;59.124;37.910;2023-08-07T12:31:20;41.77;26.95
78896;HTU21D;68284;59.124;37.910;2023-08-07T12:33:47;41.89;26.82
78896;HTU21D;68284;59.124;37.910;2023-08-07T12:36:13;42.06;26.53
78896;HTU21D;68284;59.124;37.910;2023-08-07T12:38:41;42.18;26.61
78896;HTU21D;68284;59.124;37.910;2023-08-07T12:41:07;42.45;25.84
78896;HTU21D;68284;59.124;37.910;2023-08-07T12:43:34;42.68;25.67
78896;HTU21D;68284;59.124;37.910;2023-08-07T12:46:00;42.95;25.28
78896;HTU21D;68284;59.124;37.910;2023-08-07T12:48:29;43.21;24.82
78896;HTU21D;68284;59.124;37.910;2023-08-07T12:50:56;43.33;24.97
78896;HTU21D;68284;59.124;37.910;2023-08-07T12:53:22;43.53;24.47
78896;HTU21D;68284;59.124;37.910;2023-08-07T12:55:50;43.67;24.01
78896;HTU21D;68284;59.124;37.910;2023-08-07T12:58:16;43.88;23.79
78896;HTU21D;68284;59.124;37.910;2023-08-07T13:00:53;43.99;23.16
78896;HTU21D;68284;59.124;37.910;2023-08-07T13:03:19;43.90;23.27
78896;HTU21D;68284;59.124;37.910;2023-08-07T13:05:48;43.78;23.27
78896;HTU21D;68284;59.124;37.910;2023-08-07T13:08:14;43.74;23.49
78896;HTU21D;68284;59.124;37.910;2023-08-07T13:10:40;43.71;23.46
78896;HTU21D;68284;59.124;37.910;2023-08-07T13:13:08;43.80;23.38
78896;HTU21D;68284;59.124;37.910;2023-08-07T13:15:34;43.99;23.24
78896;HTU21D;68284;59.124;37.910;2023-08-07T13:18:02;44.24;22.98
78896;HTU21D;68284;59.124;37.910;2023-08-07T13:20:29;44.50;23.34
78896;HTU21D;68284;59.124;37.910;2023-08-07T13:23:03;44.76;22.74
78896;HTU21D;68284;59.124;37.910;2023-08-07T13:25:33;45.04;22.17
78896;HTU21D;68284;59.124;37.910;2023-08-07T13:28:01;45.15;21.82
78896;HTU21D;68284;59.124;37.910;2023-08-07T13:30:34;45.20;21.90
78896;HTU21D;68284;59.124;37.910;2023-08-07T13:33:00;45.44;21.65
78896;HTU21D;68284;59.124;37.910;2023-08-07T13:35:29;45.70;21.79
78896;HTU21D;68284;59.124;37.910;2023-08-07T13:37:55;45.96;21.04
78896;HTU21D;68284;59.124;37.910;2023-08-07T13:40:23;46.04;20.76
78896;HTU21D;68284;59.124;37.910;2023-08-07T13:42:51;46.07;20.70
78896;HTU21D;68284;59.124;37.910;2023-08-07T13:45:20;46.02;22.02
78896;HTU21D;68284;59.124;37.910;2023-08-07T13:47:48;46.04;21.21
78896;HTU21D;68284;59.124;37.910;2023-08-07T13:50:16;46.14;21.18
78896;HTU21D;68284;59.124;37.910;2023-08-07T13:52:44;46.29;20.74
78896;HTU21D;68284;59.124;37.910;2023-08-07T13:55:11;46.48;20.23
78896;HTU21D;68284;59.124;37.910;2023-08-07T13:57:37;46.64;19.83
78896;HTU21D;68284;59.124;37.910;2023-08-07T14:00:11;46.82;19.67
78896;HTU21D;68284;59.124;37.910;2023-08-07T14:02:44;46.95;19.41
78896;HTU21D;68284;59.124;37.910;2023-08-07T14:05:14;47.06;19.68
78896;HTU21D;68284;59.124;37.910;2023-08-07T14:07:41;47.17;19.36
78896;HTU21D;68284;59.124;37.910;2023-08-07T14:10:07;47.27;19.14
78896;HTU21D;68284;59.124;37.910;2023-08-07T14:12:34;47.39;19.00
78896;HTU21D;68284;59.124;37.910;2023-08-07T14:15:12;47.54;18.87
78896;HTU21D;68284;59.124;37.910;2023-08-07T14:17:50;47.53;18.95
78896;HTU21D;68284;59.124;37.910;2023-08-07T14:20:18;47.43;18.79
78896;HTU21D;68284;59.124;37.910;2023-08-07T14:22:44;47.36;18.89
78896;HTU21D;68284;59.124;37.910;2023-08-07T14:25:10;47.29;18.92
78896;HTU21D;68284;59.124;37.910;2023-08-07T14:27:36;47.25;19.22
78896;HTU21D;68284;59.124;37.910;2023-08-07T14:30:03;47.37;18.96
78896;HTU21D;68284;59.124;37.910;2023-08-07T14:32:30;47.42;18.88
78896;HTU21D;68284;59.124;37.910;2023-08-07T14:34:56;47.60;18.70
78896;HTU21D;68284;59.124;37.910;2023-08-07T14:37:23;47.69;18.58
78896;HTU21D;68284;59.124;37.910;2023-08-07T14:39:49;47.65;18.79
78896;HTU21D;68284;59.124;37.910;2023-08-07T14:42:16;47.65;18.77
78896;HTU21D;68284;59.124;37.910;2023-08-07T14:44:43;47.55;18.94
78896;HTU21D;68284;59.124;37.910;2023-08-07T14:47:09;47.53;19.02
78896;HTU21D;68284;59.124;37.910;2023-08-07T14:49:35;47.48;19.09
78896;HTU21D;68284;59.124;37.910;2023-08-07T14:52:10;47.38;19.12
78896;HTU21D;68284;59.124;37.910;2023-08-07T14:54:38;47.29;19.25
78896;HTU21D;68284;59.124;37.910;2023-08-07T14:57:04;47.25;19.34
78896;HTU21D;68284;59.124;37.910;2023-08-07T14:59:30;47.28;19.26
78896;HTU21D;68284;59.124;37.910;2023-08-07T15:01:57;47.27;19.36
78896;HTU21D;68284;59.124;37.910;2023-08-07T15:04:24;47.16;19.49
78896;HTU21D;68284;59.124;37.910;2023-08-07T15:06:54;47.02;19.88
78896;HTU21D;68284;59.124;37.910;2023-08-07T15:09:21;47.02;19.70
78896;HTU21D;68284;59.124;37.910;2023-08-07T15:11:48;47.11;19.52
78896;HTU21D;68284;59.124;37.910;2023-08-07T15:14:15;47.24;19.31
78896;HTU21D;68284;59.124;37.910;2023-08-07T15:16:41;47.47;19.11
78896;HTU21D;68284;59.124;37.910;2023-08-07T15:19:08;47.56;19.01
78896;HTU21D;68284;59.124;37.910;2023-08-07T15:21:34;47.66;18.74